createdAt,value
2017-10-16T00:00:46.614Z,99.99
2017-10-16T00:01:46.615Z,99.99
2017-10-16T00:02:46.615Z,99.99
2017-10-16T00:03:46.614Z,99.99
2017-10-16T00:04:46.615Z,99.99
2017-10-16T00:05:46.623Z,99.99
2017-10-16T00:06:46.616Z,99.99
2017-10-16T00:07:46.614Z,99.99
2017-10-16T00:08:46.612Z,99.99
2017-10-16T00:09:46.614Z,99.99
2017-10-16T00:10:46.614Z,99.99
2017-10-16T00:11:46.613Z,99.99
2017-10-16T00:12:46.613Z,99.99
2017-10-16T00:13:46.613Z,99.99
2017-10-16T00:14:46.612Z,99.99
2017-10-16T00:15:46.614Z,99.99
2017-10-16T00:16:46.613Z,99.99
2017-10-16T00:17:46.613Z,99.99
2017-10-16T00:18:46.612Z,99.99
2017-10-16T00:19:46.612Z,99.99
2017-10-16T00:20:46.619Z,99.99
2017-10-16T00:21:46.616Z,99.99
2017-10-16T00:22:46.610Z,99.99
2017-10-16T00:23:46.610Z,99.99
2017-10-16T00:24:46.610Z,99.99
2017-10-16T00:25:46.610Z,99.99
2017-10-16T00:26:46.613Z,99.99
2017-10-16T00:27:46.610Z,99.99
2017-10-16T00:28:46.609Z,99.99
2017-10-16T00:29:46.608Z,99.99
2017-10-16T00:30:46.607Z,99.99
2017-10-16T00:31:46.608Z,99.99
2017-10-16T00:32:46.607Z,99.99
2017-10-16T00:33:46.606Z,99.99
2017-10-16T00:34:46.607Z,99.99
2017-10-16T00:35:46.606Z,99.99
2017-10-16T00:36:46.606Z,99.99
2017-10-16T00:37:46.605Z,99.99
2017-10-16T00:38:46.605Z,99.99
2017-10-16T00:39:46.604Z,99.99
2017-10-16T00:40:46.603Z,99.99
2017-10-16T00:41:46.604Z,99.99
2017-10-16T00:42:46.603Z,99.99
2017-10-16T00:43:46.603Z,99.99
2017-10-16T00:44:46.603Z,99.99
2017-10-16T00:45:46.602Z,99.99
2017-10-16T00:46:46.608Z,99.99
2017-10-16T00:47:46.600Z,99.99
2017-10-16T00:48:46.601Z,99.99
2017-10-16T00:49:46.601Z,99.99
2017-10-16T00:50:46.601Z,99.99
2017-10-16T00:51:46.599Z,99.99
2017-10-16T00:52:46.599Z,99.99
2017-10-16T00:53:46.597Z,99.99
2017-10-16T00:54:46.598Z,99.99
2017-10-16T00:55:46.601Z,99.99
2017-10-16T00:56:46.596Z,99.99
2017-10-16T00:57:46.596Z,99.99
2017-10-16T00:58:46.596Z,99.99
2017-10-16T00:59:46.595Z,99.99
2017-10-16T01:00:46.594Z,99.99
2017-10-16T01:01:46.594Z,99.99
2017-10-16T01:02:46.593Z,99.99
2017-10-16T01:03:46.593Z,99.99
2017-10-16T01:04:46.600Z,99.99
2017-10-16T01:05:46.592Z,99.99
2017-10-16T01:06:46.592Z,99.99
2017-10-16T01:07:46.592Z,99.99
2017-10-16T01:08:46.589Z,99.99
2017-10-16T01:09:46.590Z,99.99
2017-10-16T01:10:46.588Z,99.99
2017-10-16T01:11:46.589Z,99.99
2017-10-16T01:12:46.588Z,99.99
2017-10-16T01:13:46.586Z,99.99
2017-10-16T01:14:46.586Z,99.99
2017-10-16T01:15:46.586Z,99.99
2017-10-16T01:16:46.584Z,99.99
2017-10-16T01:17:46.588Z,99.99
2017-10-16T01:18:46.585Z,99.99
2017-10-16T01:19:46.583Z,99.99
2017-10-16T01:20:46.582Z,99.99
2017-10-16T01:21:46.582Z,99.99
2017-10-16T01:22:46.581Z,99.99
2017-10-16T01:23:46.581Z,99.99
2017-10-16T01:24:46.580Z,99.99
2017-10-16T01:25:46.578Z,99.99
2017-10-16T01:26:46.579Z,99.99
2017-10-16T01:27:46.576Z,99.99
2017-10-16T01:28:46.575Z,99.99
2017-10-16T01:29:46.575Z,99.99
2017-10-16T01:30:46.576Z,99.99
2017-10-16T01:31:46.574Z,99.99
2017-10-16T01:32:46.576Z,99.99
2017-10-16T01:33:46.574Z,99.99
2017-10-16T01:34:46.572Z,99.99
2017-10-16T01:35:46.571Z,99.99
2017-10-16T01:36:46.569Z,99.99
2017-10-16T01:37:46.584Z,99.99
2017-10-16T01:38:46.569Z,99.99
2017-10-16T01:39:46.567Z,99.99
2017-10-16T01:40:46.566Z,99.99
2017-10-16T01:41:46.565Z,99.99
2017-10-16T01:42:46.565Z,99.99
2017-10-16T01:43:46.565Z,99.99
2017-10-16T01:44:46.563Z,99.99
2017-10-16T01:45:46.567Z,99.99
2017-10-16T01:46:46.562Z,99.99
2017-10-16T01:47:46.565Z,99.99
2017-10-16T01:48:46.558Z,99.99
2017-10-16T01:49:46.562Z,99.99
2017-10-16T01:50:46.557Z,99.99
2017-10-16T01:51:46.556Z,99.99
2017-10-16T01:52:46.556Z,99.99
2017-10-16T01:53:46.576Z,99.99
2017-10-16T01:54:46.554Z,99.99
2017-10-16T01:55:46.559Z,99.99
2017-10-16T01:56:46.551Z,99.99
2017-10-16T01:57:46.553Z,99.99
2017-10-16T01:58:46.551Z,99.99
2017-10-16T01:59:46.549Z,99.99
2017-10-16T02:00:46.548Z,99.99
2017-10-16T02:01:46.551Z,99.99
2017-10-16T02:02:46.545Z,99.99
2017-10-16T02:03:46.546Z,99.99
2017-10-16T02:04:46.546Z,99.99
2017-10-16T02:05:46.543Z,99.99
2017-10-16T02:06:46.543Z,99.99
2017-10-16T02:07:46.542Z,99.99
2017-10-16T02:08:46.539Z,99.99
2017-10-16T02:09:46.539Z,99.99
2017-10-16T02:10:46.538Z,99.99
2017-10-16T02:11:46.538Z,99.99
2017-10-16T02:12:46.537Z,99.99
2017-10-16T02:13:46.536Z,99.99
2017-10-16T02:14:46.543Z,99.99
2017-10-16T02:15:46.535Z,99.99
2017-10-16T02:16:46.531Z,99.99
2017-10-16T02:17:46.531Z,99.99
2017-10-16T02:18:46.530Z,99.99
2017-10-16T02:19:46.531Z,99.99
2017-10-16T02:20:46.529Z,99.99
2017-10-16T02:21:46.528Z,99.99
2017-10-16T02:22:46.527Z,99.99
2017-10-16T02:23:46.526Z,99.99
2017-10-16T02:24:46.524Z,99.99
2017-10-16T02:25:46.524Z,99.99
2017-10-16T02:26:46.523Z,99.99
2017-10-16T02:27:46.522Z,99.99
2017-10-16T02:28:46.519Z,99.99
2017-10-16T02:29:46.520Z,99.99
2017-10-16T02:30:46.518Z,99.99
2017-10-16T02:31:46.518Z,99.99
2017-10-16T02:32:46.516Z,99.99
2017-10-16T02:33:46.517Z,99.99
2017-10-16T02:34:46.516Z,99.99
2017-10-16T02:35:46.517Z,99.99
2017-10-16T02:36:46.513Z,99.99
2017-10-16T02:37:46.513Z,99.99
2017-10-16T02:38:46.509Z,99.99
2017-10-16T02:39:46.509Z,99.99
2017-10-16T02:40:46.509Z,99.99
2017-10-16T02:41:46.507Z,99.99
2017-10-16T02:42:46.507Z,99.99
2017-10-16T02:43:46.506Z,99.99
2017-10-16T02:44:46.504Z,99.99
2017-10-16T02:45:46.504Z,99.99
2017-10-16T02:46:46.503Z,99.99
2017-10-16T02:47:46.501Z,99.99
2017-10-16T02:48:46.500Z,99.99
2017-10-16T02:49:46.498Z,99.99
2017-10-16T02:50:46.498Z,99.99
2017-10-16T02:51:46.498Z,99.99
2017-10-16T02:52:46.495Z,99.99
2017-10-16T02:53:46.495Z,99.99
2017-10-16T02:54:46.493Z,99.99
2017-10-16T02:55:46.493Z,99.99
2017-10-16T02:56:46.492Z,99.99
2017-10-16T02:57:46.490Z,99.99
2017-10-16T02:58:46.507Z,99.99
2017-10-16T02:59:46.492Z,99.99
2017-10-16T03:00:46.487Z,99.99
2017-10-16T03:01:46.485Z,99.99
2017-10-16T03:02:46.484Z,99.99
2017-10-16T03:03:46.485Z,99.99
2017-10-16T03:04:46.482Z,99.99
2017-10-16T03:05:46.481Z,99.99
2017-10-16T03:06:46.480Z,99.99
2017-10-16T03:07:46.479Z,99.99
2017-10-16T03:08:46.479Z,99.99
2017-10-16T03:09:46.480Z,99.99
2017-10-16T03:10:46.477Z,99.99
2017-10-16T03:11:46.477Z,99.99
2017-10-16T03:12:46.474Z,99.99
2017-10-16T03:13:46.474Z,99.99
2017-10-16T03:14:46.473Z,99.99
2017-10-16T03:15:46.471Z,99.99
2017-10-16T03:16:46.469Z,99.99
2017-10-16T03:17:46.472Z,99.99
2017-10-16T03:18:46.468Z,99.99
2017-10-16T03:19:46.467Z,99.99
2017-10-16T03:20:46.465Z,99.99
2017-10-16T03:21:46.464Z,99.99
2017-10-16T03:22:46.464Z,99.99
2017-10-16T03:23:46.461Z,99.99
2017-10-16T03:24:46.460Z,99.99
2017-10-16T03:25:46.459Z,99.99
2017-10-16T03:26:46.458Z,99.99
2017-10-16T03:27:46.458Z,99.99
2017-10-16T03:28:46.455Z,99.99
2017-10-16T03:29:46.456Z,99.99
2017-10-16T03:30:46.454Z,99.99
2017-10-16T03:31:46.454Z,99.99
2017-10-16T03:32:46.452Z,99.99
2017-10-16T03:33:46.450Z,99.99
2017-10-16T03:34:46.449Z,99.99
2017-10-16T03:35:46.449Z,99.99
2017-10-16T03:36:46.446Z,99.99
2017-10-16T03:37:46.446Z,99.99
2017-10-16T03:38:46.448Z,99.99
2017-10-16T03:39:46.443Z,99.99
2017-10-16T03:40:46.443Z,99.99
2017-10-16T03:41:46.440Z,99.99
2017-10-16T03:42:46.442Z,99.99
2017-10-16T03:43:46.445Z,99.99
2017-10-16T03:44:46.436Z,99.99
2017-10-16T03:45:46.444Z,99.99
2017-10-16T03:46:46.435Z,99.99
2017-10-16T03:47:46.435Z,99.99
2017-10-16T03:48:46.432Z,99.99
2017-10-16T03:49:46.433Z,99.99
2017-10-16T03:50:46.430Z,99.99
2017-10-16T03:51:46.434Z,99.99
2017-10-16T03:52:46.429Z,99.99
2017-10-16T03:53:46.427Z,99.99
2017-10-16T03:54:46.425Z,99.99
2017-10-16T03:55:46.426Z,99.99
2017-10-16T03:56:46.422Z,99.99
2017-10-16T03:57:46.422Z,99.99
2017-10-16T03:58:46.421Z,99.99
2017-10-16T03:59:46.421Z,99.99
2017-10-16T04:00:46.417Z,99.99
2017-10-16T04:01:46.420Z,99.99
2017-10-16T04:02:46.417Z,99.99
2017-10-16T04:03:46.415Z,99.99
2017-10-16T04:04:46.413Z,99.99
2017-10-16T04:05:46.412Z,99.99
2017-10-16T04:06:46.412Z,99.99
2017-10-16T04:07:46.410Z,99.99
2017-10-16T04:08:46.409Z,99.99
2017-10-16T04:09:46.407Z,99.99
2017-10-16T04:10:46.406Z,99.99
2017-10-16T04:11:46.406Z,99.99
2017-10-16T04:12:46.403Z,99.99
2017-10-16T04:13:46.401Z,99.99
2017-10-16T04:14:46.402Z,99.99
2017-10-16T04:15:46.401Z,99.99
2017-10-16T04:16:46.398Z,99.99
2017-10-16T04:17:46.398Z,99.99
2017-10-16T04:18:46.397Z,99.99
2017-10-16T04:19:46.395Z,99.99
2017-10-16T04:20:46.394Z,99.99
2017-10-16T04:21:46.393Z,99.99
2017-10-16T04:22:46.391Z,99.99
2017-10-16T04:23:46.390Z,99.99
2017-10-16T04:24:46.439Z,99.99
2017-10-16T04:25:46.387Z,99.99
2017-10-16T04:26:46.387Z,99.99
2017-10-16T04:27:46.386Z,99.99
2017-10-16T04:28:46.382Z,99.99
2017-10-16T04:29:46.382Z,99.99
2017-10-16T04:30:46.381Z,99.99
2017-10-16T04:31:46.380Z,99.99
2017-10-16T04:32:46.378Z,99.99
2017-10-16T04:33:46.378Z,99.99
2017-10-16T04:34:46.375Z,99.99
2017-10-16T04:35:46.376Z,99.99
2017-10-16T04:36:46.374Z,99.99
2017-10-16T04:37:46.371Z,99.99
2017-10-16T04:38:46.373Z,99.99
2017-10-16T04:39:46.371Z,99.99
2017-10-16T04:40:46.372Z,99.99
2017-10-16T04:41:46.367Z,99.99
2017-10-16T04:42:46.366Z,99.99
2017-10-16T04:43:46.365Z,99.99
2017-10-16T04:44:46.362Z,99.99
2017-10-16T04:45:46.363Z,99.99
2017-10-16T04:46:46.366Z,99.99
2017-10-16T04:47:46.360Z,99.99
2017-10-16T04:48:46.360Z,99.99
2017-10-16T04:49:46.361Z,99.99
2017-10-16T04:50:46.356Z,99.99
2017-10-16T04:51:46.355Z,99.99
2017-10-16T04:52:46.354Z,99.99
2017-10-16T04:53:46.352Z,99.99
2017-10-16T04:54:46.351Z,99.99
2017-10-16T04:55:46.351Z,99.99
2017-10-16T04:56:46.348Z,99.99
2017-10-16T04:57:46.346Z,99.99
2017-10-16T04:58:46.345Z,99.99
2017-10-16T04:59:46.344Z,99.99
2017-10-16T05:00:46.342Z,99.99
2017-10-16T05:01:46.342Z,99.99
2017-10-16T05:02:46.341Z,99.99
2017-10-16T05:03:46.340Z,99.99
2017-10-16T05:04:46.338Z,99.99
2017-10-16T05:05:46.345Z,99.99
2017-10-16T05:06:46.336Z,99.99
2017-10-16T05:07:46.334Z,99.99
2017-10-16T05:08:46.333Z,99.99
2017-10-16T05:09:46.383Z,99.99
2017-10-16T05:10:46.331Z,99.99
2017-10-16T05:11:46.329Z,99.99
2017-10-16T05:12:46.327Z,99.99
2017-10-16T05:13:46.326Z,99.99
2017-10-16T05:14:46.325Z,99.99
2017-10-16T05:15:46.325Z,99.99
2017-10-16T05:16:46.322Z,99.99
2017-10-16T05:17:46.321Z,99.99
2017-10-16T05:18:46.320Z,99.99
2017-10-16T05:19:46.320Z,99.99
2017-10-16T05:20:46.317Z,99.99
2017-10-16T05:21:46.315Z,99.99
2017-10-16T05:22:46.314Z,99.99
2017-10-16T05:23:46.315Z,99.99
2017-10-16T05:24:46.312Z,99.99
2017-10-16T05:25:46.311Z,99.99
2017-10-16T05:26:46.309Z,99.99
2017-10-16T05:27:46.308Z,99.99
2017-10-16T05:28:46.306Z,99.99
2017-10-16T05:29:46.306Z,99.99
2017-10-16T05:30:46.304Z,99.99
2017-10-16T05:31:46.302Z,99.99
2017-10-16T05:32:46.301Z,99.99
2017-10-16T05:33:46.299Z,99.99
2017-10-16T05:34:46.299Z,99.99
2017-10-16T05:35:46.298Z,99.99
2017-10-16T05:36:46.297Z,99.99
2017-10-16T05:37:46.293Z,99.99
2017-10-16T05:38:46.294Z,99.99
2017-10-16T05:39:46.292Z,99.99
2017-10-16T05:40:46.291Z,99.99
2017-10-16T05:41:46.305Z,99.99
2017-10-16T05:42:46.289Z,99.99
2017-10-16T05:43:46.286Z,99.99
2017-10-16T05:44:46.285Z,99.99
2017-10-16T05:45:46.284Z,99.99
2017-10-16T05:46:46.282Z,99.99
2017-10-16T05:47:46.286Z,99.99
2017-10-16T05:48:46.279Z,99.99
2017-10-16T05:49:46.278Z,99.99
2017-10-16T05:50:46.277Z,99.99
2017-10-16T05:51:46.277Z,99.99
2017-10-16T05:52:46.273Z,99.99
2017-10-16T05:53:46.274Z,99.99
2017-10-16T05:54:46.272Z,99.99
2017-10-16T05:55:46.275Z,99.99
2017-10-16T05:56:46.267Z,99.99
2017-10-16T05:57:46.267Z,99.99
2017-10-16T05:58:46.270Z,99.99
2017-10-16T05:59:46.265Z,99.99
2017-10-16T06:00:46.263Z,99.99
2017-10-16T06:01:46.262Z,99.99
2017-10-16T06:02:46.270Z,99.99
2017-10-16T06:03:46.258Z,99.99
2017-10-16T06:04:46.258Z,99.99
2017-10-16T06:05:46.260Z,99.99
2017-10-16T06:06:46.253Z,99.99
2017-10-16T06:07:46.259Z,99.99
2017-10-16T06:08:46.252Z,99.99
2017-10-16T06:09:46.252Z,99.99
2017-10-16T06:10:46.248Z,99.99
2017-10-16T06:11:46.251Z,99.99
2017-10-16T06:12:46.248Z,99.99
2017-10-16T06:13:46.249Z,99.99
2017-10-16T06:14:46.244Z,99.99
2017-10-16T06:15:46.242Z,99.99
2017-10-16T06:16:46.240Z,99.99
2017-10-16T06:17:46.240Z,99.99
2017-10-16T06:18:46.238Z,99.99
2017-10-16T06:19:46.238Z,99.99
2017-10-16T06:20:46.236Z,99.99
2017-10-16T06:21:46.234Z,99.99
2017-10-16T06:22:46.234Z,99.99
2017-10-16T06:23:46.233Z,99.99
2017-10-16T06:24:46.232Z,99.99
2017-10-16T06:25:46.229Z,99.99
2017-10-16T06:26:46.229Z,99.99
2017-10-16T06:27:46.227Z,99.99
2017-10-16T06:28:46.225Z,99.99
2017-10-16T06:29:46.225Z,99.99
2017-10-16T06:30:46.274Z,99.99
2017-10-16T06:31:46.221Z,99.99
2017-10-16T06:32:46.221Z,99.99
2017-10-16T06:33:46.220Z,99.99
2017-10-16T06:34:46.218Z,99.99
2017-10-16T06:35:46.218Z,99.99
2017-10-16T06:36:46.217Z,99.99
2017-10-16T06:37:46.215Z,99.99
2017-10-16T06:38:46.215Z,99.99
2017-10-16T06:39:46.215Z,99.99
2017-10-16T06:40:46.212Z,99.99
2017-10-16T06:41:46.212Z,99.99
2017-10-16T06:42:46.210Z,99.99
2017-10-16T06:43:46.215Z,99.99
2017-10-16T06:44:46.215Z,99.99
2017-10-16T06:45:46.208Z,99.99
2017-10-16T06:46:46.208Z,99.99
2017-10-16T06:47:46.207Z,99.99
2017-10-16T06:48:46.205Z,99.99
2017-10-16T06:49:46.204Z,99.99
2017-10-16T06:50:46.203Z,99.99
2017-10-16T06:51:46.203Z,99.99
2017-10-16T06:52:46.233Z,99.99
2017-10-16T06:53:46.200Z,99.99
2017-10-16T06:54:46.200Z,99.99
2017-10-16T06:55:46.200Z,99.99
2017-10-16T06:56:46.198Z,99.99
2017-10-16T06:57:46.197Z,99.99
2017-10-16T06:58:46.198Z,99.99
2017-10-16T06:59:46.198Z,99.99
2017-10-16T07:00:46.196Z,99.99
2017-10-16T07:01:46.195Z,99.99
2017-10-16T07:02:46.196Z,99.99
2017-10-16T07:03:46.195Z,99.99
2017-10-16T07:04:46.194Z,99.99
2017-10-16T07:05:46.194Z,99.99
2017-10-16T07:06:46.195Z,99.99
2017-10-16T07:07:46.194Z,99.99
2017-10-16T07:08:46.194Z,99.99
2017-10-16T07:09:46.197Z,99.99
2017-10-16T07:10:46.196Z,99.99
2017-10-16T07:11:46.194Z,99.99
2017-10-16T07:12:46.194Z,99.99
2017-10-16T07:13:46.195Z,99.99
2017-10-16T07:14:46.194Z,99.99
2017-10-16T07:15:46.195Z,99.99
2017-10-16T07:16:46.195Z,99.99
2017-10-16T07:17:46.196Z,99.99
2017-10-16T07:18:46.195Z,99.99
2017-10-16T07:19:46.196Z,99.99
2017-10-16T07:20:46.195Z,99.99
2017-10-16T07:21:46.197Z,99.99
2017-10-16T07:22:46.198Z,99.99
2017-10-16T07:23:46.197Z,99.86
2017-10-16T07:24:46.198Z,99.76
2017-10-16T07:25:46.197Z,99.99
2017-10-16T07:26:46.201Z,99.99
2017-10-16T07:27:46.201Z,99.99
2017-10-16T07:28:46.202Z,99.99
2017-10-16T07:29:46.205Z,99.99
2017-10-16T07:30:46.202Z,99.99
2017-10-16T07:31:46.204Z,99.99
2017-10-16T07:32:46.204Z,99.99
2017-10-16T07:33:46.208Z,99.99
2017-10-16T07:34:46.206Z,99.99
2017-10-16T07:35:46.208Z,99.99
2017-10-16T07:36:46.207Z,99.99
2017-10-16T07:37:46.211Z,99.99
2017-10-16T07:38:46.210Z,99.99
2017-10-16T07:39:46.211Z,99.99
2017-10-16T07:40:46.211Z,99.99
2017-10-16T07:41:46.214Z,99.99
2017-10-16T07:42:46.214Z,99.99
2017-10-16T07:43:46.217Z,99.99
2017-10-16T07:44:46.228Z,99.99
2017-10-16T07:45:46.219Z,99.99
2017-10-16T07:46:46.220Z,99.99
2017-10-16T07:47:46.220Z,99.99
2017-10-16T07:48:46.221Z,99.77
2017-10-16T07:49:46.227Z,99.38
2017-10-16T07:50:46.226Z,98.33
2017-10-16T07:51:46.226Z,98.62
2017-10-16T07:52:46.228Z,98.62
2017-10-16T07:53:46.230Z,99.10
2017-10-16T07:54:46.231Z,97.85
2017-10-16T07:55:46.234Z,98.10
2017-10-16T07:56:46.234Z,97.61
2017-10-16T07:57:46.239Z,98.19
2017-10-16T07:58:46.239Z,97.23
2017-10-16T07:59:46.241Z,96.56
2017-10-16T08:00:46.242Z,96.75
2017-10-16T08:01:46.244Z,96.51
2017-10-16T08:02:46.248Z,96.99
2017-10-16T08:03:46.248Z,96.80
2017-10-16T08:04:46.251Z,97.47
2017-10-16T08:05:46.253Z,96.61
2017-10-16T08:06:46.256Z,95.84
2017-10-16T08:07:46.256Z,95.75
2017-10-16T08:08:46.260Z,96.13
2017-10-16T08:09:46.262Z,95.56
2017-10-16T08:10:46.264Z,95.94
2017-10-16T08:11:46.267Z,96.51
2017-10-16T08:12:46.268Z,96.32
2017-10-16T08:13:46.270Z,97.04
2017-10-16T08:14:46.273Z,95.60
2017-10-16T08:15:46.277Z,95.21
2017-10-16T08:16:46.278Z,95.60
2017-10-16T08:17:46.280Z,96.56
2017-10-16T08:18:46.282Z,95.03
2017-10-16T08:19:46.287Z,95.31
2017-10-16T08:20:46.287Z,95.31
2017-10-16T08:21:46.290Z,95.51
2017-10-16T08:22:46.293Z,95.51
2017-10-16T08:23:46.296Z,95.89
2017-10-16T08:24:46.300Z,95.21
2017-10-16T08:25:46.302Z,95.21
2017-10-16T08:26:46.306Z,94.79
2017-10-16T08:27:46.308Z,94.98
2017-10-16T08:28:46.311Z,94.79
2017-10-16T08:29:46.313Z,95.26
2017-10-16T08:30:46.317Z,95.07
2017-10-16T08:31:46.421Z,93.92
2017-10-16T08:32:46.322Z,93.44
2017-10-16T08:33:46.327Z,93.63
2017-10-16T08:34:46.328Z,92.72
2017-10-16T08:35:46.333Z,92.63
2017-10-16T08:36:46.336Z,92.14
2017-10-16T08:37:46.340Z,93.01
2017-10-16T08:38:46.343Z,92.63
2017-10-16T08:39:46.346Z,93.10
2017-10-16T08:40:46.352Z,92.53
2017-10-16T08:41:46.353Z,92.24
2017-10-16T08:42:46.358Z,92.53
2017-10-16T08:43:46.363Z,91.66
2017-10-16T08:44:46.365Z,92.33
2017-10-16T08:45:46.369Z,90.90
2017-10-16T08:46:46.373Z,91.28
2017-10-16T08:47:46.377Z,91.81
2017-10-16T08:48:46.381Z,91.81
2017-10-16T08:49:46.384Z,91.71
2017-10-16T08:50:46.389Z,91.81
2017-10-16T08:51:46.493Z,91.81
2017-10-16T08:52:46.395Z,91.90
2017-10-16T08:53:46.401Z,92.00
2017-10-16T08:54:46.406Z,91.52
2017-10-16T08:55:46.409Z,90.70
2017-10-16T08:56:46.414Z,91.08
2017-10-16T08:57:46.416Z,90.80
2017-10-16T08:58:46.427Z,91.47
2017-10-16T08:59:46.428Z,90.41
2017-10-16T09:00:46.429Z,90.51
2017-10-16T09:01:46.435Z,90.51
2017-10-16T09:02:46.442Z,90.12
2017-10-16T09:03:46.443Z,89.93
2017-10-16T09:04:46.448Z,89.64
2017-10-16T09:05:46.452Z,89.93
2017-10-16T09:06:46.458Z,89.54
2017-10-16T09:07:46.466Z,89.21
2017-10-16T09:08:46.473Z,89.11
2017-10-16T09:09:46.471Z,87.96
2017-10-16T09:10:46.476Z,87.67
2017-10-16T09:11:46.481Z,87.76
2017-10-16T09:12:46.486Z,87.96
2017-10-16T09:13:46.492Z,88.24
2017-10-16T09:14:46.497Z,88.53
2017-10-16T09:15:46.501Z,87.57
2017-10-16T09:16:46.505Z,88.10
2017-10-16T09:17:46.512Z,88.29
2017-10-16T09:18:46.514Z,87.13
2017-10-16T09:19:46.520Z,86.85
2017-10-16T09:20:46.526Z,86.56
2017-10-16T09:21:46.530Z,86.89
2017-10-16T09:22:46.535Z,85.83
2017-10-16T09:23:46.541Z,84.91
2017-10-16T09:24:46.547Z,83.45
2017-10-16T09:25:46.552Z,80.60
2017-10-16T09:26:46.577Z,79.19
2017-10-16T09:27:46.564Z,78.08
2017-10-16T09:28:46.571Z,77.01
2017-10-16T09:29:46.579Z,76.32
2017-10-16T09:30:46.585Z,75.31
2017-10-16T09:31:46.591Z,76.18
2017-10-16T09:32:46.600Z,75.16
2017-10-16T09:33:46.608Z,75.16
2017-10-16T09:34:46.616Z,75.54
2017-10-16T09:35:46.623Z,74.10
2017-10-16T09:36:46.632Z,75.06
2017-10-16T09:37:46.641Z,74.38
2017-10-16T09:38:46.650Z,74.42
2017-10-16T09:39:46.658Z,73.94
2017-10-16T09:40:46.668Z,73.01
2017-10-16T09:41:46.676Z,72.58
2017-10-16T09:42:46.689Z,73.49
2017-10-16T09:43:46.695Z,72.39
2017-10-16T09:44:46.706Z,72.78
2017-10-16T09:45:46.716Z,72.62
2017-10-16T09:46:46.749Z,72.72
2017-10-16T09:47:46.736Z,71.78
2017-10-16T09:48:46.747Z,71.72
2017-10-16T09:49:46.758Z,69.50
2017-10-16T09:50:46.769Z,69.82
2017-10-16T09:51:46.780Z,69.79
2017-10-16T09:52:46.789Z,69.59
2017-10-16T09:53:46.801Z,69.50
2017-10-16T09:54:46.813Z,69.05
2017-10-16T09:55:46.825Z,69.53
2017-10-16T09:56:46.836Z,69.46
2017-10-16T09:57:46.848Z,72.08
2017-10-16T09:58:46.866Z,71.20
2017-10-16T09:59:46.872Z,70.76
2017-10-16T10:00:46.884Z,71.14
2017-10-16T10:01:46.896Z,69.34
2017-10-16T10:02:46.907Z,69.59
2017-10-16T10:03:46.922Z,70.37
2017-10-16T10:04:46.931Z,70.43
2017-10-16T10:05:46.943Z,70.04
2017-10-16T10:06:46.957Z,70.82
2017-10-16T10:07:46.968Z,71.30
2017-10-16T10:08:46.985Z,71.56
2017-10-16T10:09:46.992Z,71.36
2017-10-16T10:10:47.006Z,71.94
2017-10-16T10:11:47.017Z,73.46
2017-10-16T10:12:47.028Z,74.58
2017-10-16T10:13:47.041Z,76.09
2017-10-16T10:14:47.052Z,76.47
2017-10-16T10:15:47.064Z,75.60
2017-10-16T10:16:47.076Z,76.22
2017-10-16T10:17:47.085Z,76.03
2017-10-16T10:18:47.098Z,76.12
2017-10-16T10:19:47.110Z,75.74
2017-10-16T10:20:47.120Z,75.74
2017-10-16T10:21:47.132Z,75.45
2017-10-16T10:22:47.143Z,75.74
2017-10-16T10:23:47.154Z,76.51
2017-10-16T10:24:47.165Z,76.51
2017-10-16T10:25:47.176Z,76.37
2017-10-16T10:26:47.185Z,75.60
2017-10-16T10:27:47.196Z,76.09
2017-10-16T10:28:47.206Z,75.99
2017-10-16T10:29:47.218Z,75.79
2017-10-16T10:30:47.228Z,76.72
2017-10-16T10:31:47.238Z,76.43
2017-10-16T10:32:47.247Z,77.21
2017-10-16T10:33:47.258Z,76.53
2017-10-16T10:34:47.269Z,76.53
2017-10-16T10:35:47.279Z,77.21
2017-10-16T10:36:47.306Z,76.76
2017-10-16T10:37:47.296Z,76.47
2017-10-16T10:38:47.317Z,76.57
2017-10-16T10:39:47.316Z,76.67
2017-10-16T10:40:47.325Z,76.37
2017-10-16T10:41:47.333Z,76.28
2017-10-16T10:42:47.343Z,76.09
2017-10-16T10:43:47.353Z,75.84
2017-10-16T10:44:47.362Z,74.87
2017-10-16T10:45:47.371Z,75.00
2017-10-16T10:46:47.381Z,73.88
2017-10-16T10:47:47.389Z,74.48
2017-10-16T10:48:47.397Z,75.45
2017-10-16T10:49:47.408Z,75.45
2017-10-16T10:50:47.418Z,75.99
2017-10-16T10:51:47.427Z,75.99
2017-10-16T10:52:47.435Z,75.89
2017-10-16T10:53:47.444Z,76.18
2017-10-16T10:54:47.453Z,75.89
2017-10-16T10:55:47.461Z,76.37
2017-10-16T10:56:47.470Z,76.42
2017-10-16T10:57:47.480Z,75.99
2017-10-16T10:58:47.487Z,75.84
2017-10-16T10:59:47.505Z,76.32
2017-10-16T11:00:47.505Z,76.03
2017-10-16T11:01:47.515Z,75.74
2017-10-16T11:02:47.523Z,76.22
2017-10-16T11:03:47.533Z,75.84
2017-10-16T11:04:47.540Z,75.84
2017-10-16T11:05:47.549Z,75.54
2017-10-16T11:06:47.558Z,75.99
2017-10-16T11:07:47.568Z,76.18
2017-10-16T11:08:47.574Z,76.18
2017-10-16T11:09:47.583Z,76.67
2017-10-16T11:10:47.593Z,75.79
2017-10-16T11:11:47.600Z,76.09
2017-10-16T11:12:47.610Z,76.32
2017-10-16T11:13:47.618Z,75.84
2017-10-16T11:14:47.627Z,74.87
2017-10-16T11:15:47.639Z,76.32
2017-10-16T11:16:47.642Z,76.35
2017-10-16T11:17:47.652Z,76.22
2017-10-16T11:18:47.661Z,75.84
2017-10-16T11:19:47.681Z,75.16
2017-10-16T11:20:47.676Z,75.16
2017-10-16T11:21:47.686Z,75.35
2017-10-16T11:22:47.694Z,75.45
2017-10-16T11:23:47.704Z,74.87
2017-10-16T11:24:47.711Z,74.32
2017-10-16T11:25:47.720Z,74.81
2017-10-16T11:26:47.726Z,74.90
2017-10-16T11:27:47.737Z,74.71
2017-10-16T11:28:47.744Z,73.71
2017-10-16T11:29:47.753Z,74.23
2017-10-16T11:30:47.762Z,73.74
2017-10-16T11:31:47.771Z,74.32
2017-10-16T11:32:47.777Z,74.90
2017-10-16T11:33:47.787Z,75.68
2017-10-16T11:34:47.794Z,75.29
2017-10-16T11:35:47.802Z,75.26
2017-10-16T11:36:47.811Z,74.23
2017-10-16T11:37:47.820Z,73.74
2017-10-16T11:38:47.827Z,74.42
2017-10-16T11:39:47.838Z,74.42
2017-10-16T11:40:47.843Z,74.13
2017-10-16T11:41:47.853Z,73.65
2017-10-16T11:42:47.863Z,74.13
2017-10-16T11:43:47.870Z,75.20
2017-10-16T11:44:47.876Z,75.29
2017-10-16T11:45:47.885Z,75.29
2017-10-16T11:46:47.895Z,73.65
2017-10-16T11:47:47.902Z,73.46
2017-10-16T11:48:47.911Z,73.36
2017-10-16T11:49:47.920Z,73.36
2017-10-16T11:50:47.927Z,72.30
2017-10-16T11:51:47.935Z,72.88
2017-10-16T11:52:47.942Z,73.26
2017-10-16T11:53:47.952Z,72.68
2017-10-16T11:54:47.961Z,72.68
2017-10-16T11:55:47.970Z,72.78
2017-10-16T11:56:47.977Z,72.78
2017-10-16T11:57:47.984Z,73.16
2017-10-16T11:58:47.994Z,72.30
2017-10-16T11:59:48.002Z,71.72
2017-10-16T12:00:48.008Z,71.81
2017-10-16T12:01:48.017Z,72.58
2017-10-16T12:02:48.030Z,72.88
2017-10-16T12:03:48.034Z,72.91
2017-10-16T12:04:48.042Z,72.33
2017-10-16T12:05:48.051Z,71.84
2017-10-16T12:06:48.061Z,72.62
2017-10-16T12:07:48.066Z,72.04
2017-10-16T12:08:48.074Z,71.26
2017-10-16T12:09:48.084Z,70.59
2017-10-16T12:10:48.091Z,71.17
2017-10-16T12:11:48.101Z,71.66
2017-10-16T12:12:48.116Z,70.59
2017-10-16T12:13:48.116Z,71.26
2017-10-16T12:14:48.126Z,70.78
2017-10-16T12:15:48.135Z,70.98
2017-10-16T12:16:48.140Z,71.56
2017-10-16T12:17:48.149Z,71.08
2017-10-16T12:18:48.157Z,71.26
2017-10-16T12:19:48.167Z,71.08
2017-10-16T12:20:48.174Z,72.04
2017-10-16T12:21:48.183Z,71.36
2017-10-16T12:22:48.191Z,70.78
2017-10-16T12:23:48.199Z,71.56
2017-10-16T12:24:48.206Z,72.42
2017-10-16T12:25:48.216Z,72.33
2017-10-16T12:26:48.224Z,72.81
2017-10-16T12:27:48.232Z,71.75
2017-10-16T12:28:48.239Z,72.14
2017-10-16T12:29:48.248Z,72.04
2017-10-16T12:30:48.257Z,71.66
2017-10-16T12:31:48.265Z,71.17
2017-10-16T12:32:48.271Z,70.82
2017-10-16T12:33:48.284Z,70.04
2017-10-16T12:34:48.289Z,69.37
2017-10-16T12:35:48.297Z,69.50
2017-10-16T12:36:48.305Z,69.21
2017-10-16T12:37:48.313Z,70.24
2017-10-16T12:38:48.322Z,70.24
2017-10-16T12:39:48.331Z,70.53
2017-10-16T12:40:48.336Z,70.34
2017-10-16T12:41:48.345Z,69.95
2017-10-16T12:42:48.353Z,71.04
2017-10-16T12:43:48.361Z,70.66
2017-10-16T12:44:48.369Z,70.27
2017-10-16T12:45:48.379Z,69.21
2017-10-16T12:46:48.386Z,69.59
2017-10-16T12:47:48.395Z,70.53
2017-10-16T12:48:48.402Z,70.82
2017-10-16T12:49:48.410Z,71.69
2017-10-16T12:50:48.419Z,72.27
2017-10-16T12:51:48.428Z,71.59
2017-10-16T12:52:48.435Z,71.20